createdAt,value
2022-12-25T00:01:18.238Z,19.63
2022-12-25T00:03:45.521Z,20.27
2022-12-25T00:06:12.821Z,19.52
2022-12-25T00:08:40.752Z,18.15
2022-12-25T00:11:12.135Z,19.75
2022-12-25T00:13:39.336Z,18.63
2022-12-25T00:16:09.496Z,18.92
2022-12-25T00:18:36.612Z,17.30
2022-12-25T00:21:06.049Z,19.48
2022-12-25T00:23:34.075Z,18.60
2022-12-25T00:26:05.794Z,19.30
2022-12-25T00:28:33.001Z,18.90
2022-12-25T00:31:00.153Z,16.98
2022-12-25T00:33:27.415Z,17.10
2022-12-25T00:36:01.874Z,16.15
2022-12-25T00:38:28.939Z,17.20
2022-12-25T00:40:56.860Z,17.50
2022-12-25T00:43:24.777Z,18.50
2022-12-25T00:45:59.802Z,18.88
2022-12-25T00:48:28.583Z,17.70
2022-12-25T00:50:57.544Z,17.13
2022-12-25T00:53:25.582Z,18.48
2022-12-25T00:55:58.573Z,17.00
2022-12-25T00:58:28.510Z,17.95
2022-12-25T01:00:56.451Z,17.52
2022-12-25T01:03:24.734Z,15.77
2022-12-25T01:05:58.156Z,16.70
2022-12-25T01:08:25.963Z,17.52
2022-12-25T01:10:58.918Z,16.65
2022-12-25T01:13:26.488Z,17.15
2022-12-25T01:15:54.640Z,18.25
2022-12-25T01:18:23.576Z,15.63
2022-12-25T01:20:51.012Z,17.48
2022-12-25T01:23:18.044Z,18.33
2022-12-25T01:25:45.114Z,17.05
2022-12-25T01:28:12.160Z,19.90
2022-12-25T01:30:39.298Z,18.42
2022-12-25T01:33:06.448Z,19.10
2022-12-25T01:35:33.503Z,15.38
2022-12-25T01:38:00.566Z,17.23
2022-12-25T01:40:27.745Z,17.20
2022-12-25T01:42:54.851Z,16.40
2022-12-25T01:45:42.186Z,15.73
2022-12-25T01:48:14.281Z,17.10
2022-12-25T01:50:46.093Z,14.82
2022-12-25T01:53:13.403Z,17.65
2022-12-25T01:55:42.214Z,15.38
2022-12-25T01:58:09.735Z,17.13
2022-12-25T02:00:36.911Z,15.50
2022-12-25T02:03:04.692Z,14.75
2022-12-25T02:05:33.902Z,17.75
2022-12-25T02:08:10.466Z,15.32
2022-12-25T02:10:39.308Z,12.52
2022-12-25T02:13:08.035Z,16.95
2022-12-25T02:15:55.235Z,16.52
2022-12-25T02:18:44.802Z,14.98
2022-12-25T02:21:51.591Z,15.45
2022-12-25T02:24:43.157Z,15.65
2022-12-25T02:27:31.060Z,16.45
2022-12-25T02:30:08.613Z,15.27
2022-12-25T02:32:47.367Z,16.42
2022-12-25T02:35:25.942Z,14.95
2022-12-25T02:38:05.943Z,15.80
2022-12-25T02:40:42.533Z,13.50
2022-12-25T02:43:36.711Z,13.75
2022-12-25T02:46:28.702Z,16.67
2022-12-25T02:49:24.073Z,15.50
2022-12-25T02:52:29.603Z,14.32
2022-12-25T02:55:32.885Z,14.60
2022-12-25T02:58:30.992Z,13.48
2022-12-25T03:01:39.897Z,13.10
2022-12-25T03:04:33.531Z,16.13
2022-12-25T03:07:13.946Z,15.38
2022-12-25T03:10:07.705Z,12.88
2022-12-25T03:12:45.224Z,15.18
2022-12-25T03:15:33.340Z,13.30
2022-12-25T03:18:03.465Z,15.45
2022-12-25T03:20:51.543Z,13.50
2022-12-25T03:23:45.723Z,16.95
2022-12-25T03:26:32.821Z,12.60
2022-12-25T03:28:59.973Z,13.82
2022-12-25T03:31:36.839Z,16.70
2022-12-25T03:34:35.611Z,14.45
2022-12-25T03:38:01.330Z,13.55
2022-12-25T03:41:11.868Z,13.55
2022-12-25T03:44:12.824Z,13.10
2022-12-25T03:47:08.670Z,13.05
2022-12-25T03:50:20.430Z,13.02
2022-12-25T03:53:09.101Z,11.68
2022-12-25T03:55:57.036Z,13.38
2022-12-25T03:58:47.025Z,13.15
2022-12-25T04:01:34.847Z,12.95
2022-12-25T04:04:21.915Z,14.18
2022-12-25T04:07:08.851Z,13.30
2022-12-25T04:09:55.760Z,13.00
2022-12-25T04:12:42.730Z,13.60
2022-12-25T04:15:30.349Z,14.00
2022-12-25T04:18:17.256Z,12.13
2022-12-25T04:21:04.263Z,12.63
2022-12-25T04:23:51.320Z,13.15
2022-12-25T04:26:38.322Z,13.73
2022-12-25T04:29:25.314Z,11.30
2022-12-25T04:32:12.349Z,12.88
2022-12-25T04:34:59.369Z,12.10
2022-12-25T04:37:26.481Z,11.32
2022-12-25T04:39:53.607Z,11.52
2022-12-25T04:42:20.666Z,12.00
2022-12-25T04:44:47.658Z,12.35
2022-12-25T04:47:14.736Z,12.70
2022-12-25T04:49:41.858Z,11.55
2022-12-25T04:52:08.900Z,12.40
2022-12-25T04:54:37.672Z,11.88
2022-12-25T04:57:05.023Z,13.48
2022-12-25T04:59:32.100Z,12.73
2022-12-25T05:01:59.232Z,11.63
2022-12-25T05:04:26.398Z,12.32
2022-12-25T05:06:53.498Z,11.23
2022-12-25T05:09:20.597Z,11.15
2022-12-25T05:11:47.827Z,11.20
2022-12-25T05:14:15.412Z,10.93
2022-12-25T05:16:42.730Z,11.27
2022-12-25T05:19:10.416Z,10.30
2022-12-25T05:21:37.445Z,10.30
2022-12-25T05:24:04.773Z,10.13
2022-12-25T05:26:31.859Z,11.38
2022-12-25T05:28:59.925Z,11.07
2022-12-25T05:31:27.041Z,12.52
2022-12-25T05:33:54.205Z,11.82
2022-12-25T05:36:21.706Z,11.02
2022-12-25T05:38:48.876Z,12.00
2022-12-25T05:41:15.943Z,11.93
2022-12-25T05:43:42.983Z,11.93
2022-12-25T05:46:11.621Z,11.45
2022-12-25T05:48:39.245Z,11.50
2022-12-25T05:51:09.038Z,11.73
2022-12-25T05:53:36.749Z,11.70
2022-12-25T05:56:06.193Z,11.10
2022-12-25T05:58:35.256Z,12.05
2022-12-25T06:01:02.518Z,11.80
2022-12-25T06:03:30.056Z,10.65
2022-12-25T06:05:57.302Z,10.05
2022-12-25T06:08:24.361Z,9.85
2022-12-25T06:10:51.411Z,12.82
2022-12-25T06:13:18.468Z,9.70
2022-12-25T06:15:45.479Z,11.85
2022-12-25T06:18:12.632Z,12.55
2022-12-25T06:20:42.708Z,12.15
2022-12-25T06:23:10.371Z,12.40
2022-12-25T06:25:40.853Z,9.83
2022-12-25T06:30:35.292Z,10.88
2022-12-25T06:33:02.383Z,10.95
2022-12-25T06:35:29.459Z,11.27
2022-12-25T06:37:56.839Z,11.20
2022-12-25T06:40:23.890Z,9.77
2022-12-25T06:42:52.073Z,11.93
2022-12-25T06:45:19.117Z,10.15
2022-12-25T06:47:46.182Z,10.00
2022-12-25T06:50:13.406Z,9.75
2022-12-25T06:52:40.475Z,9.60
2022-12-25T06:55:07.859Z,13.13
2022-12-25T06:57:34.938Z,13.52
2022-12-25T07:00:02.006Z,11.27
2022-12-25T07:02:29.334Z,12.98
2022-12-25T07:04:56.567Z,11.98
2022-12-25T07:07:23.786Z,11.68
2022-12-25T07:09:50.891Z,11.73
2022-12-25T07:12:23.782Z,12.68
2022-12-25T07:14:53.426Z,12.98
2022-12-25T07:17:21.607Z,14.43
2022-12-25T07:19:49.078Z,13.57
2022-12-25T07:22:16.753Z,14.30
2022-12-25T07:24:43.922Z,16.40
2022-12-25T07:27:11.290Z,15.70
2022-12-25T07:29:38.552Z,14.50
2022-12-25T07:32:05.911Z,13.68
2022-12-25T07:34:33.047Z,17.00
2022-12-25T07:37:00.113Z,15.95
2022-12-25T07:39:27.207Z,16.02
2022-12-25T07:41:54.275Z,17.02
2022-12-25T07:44:21.381Z,14.65
2022-12-25T07:46:48.691Z,16.52
2022-12-25T07:49:16.379Z,18.50
2022-12-25T07:51:43.490Z,16.95
2022-12-25T07:54:10.723Z,17.75
2022-12-25T07:56:37.859Z,17.42
2022-12-25T07:59:04.885Z,16.00
2022-12-25T08:01:32.257Z,18.23
2022-12-25T08:04:01.735Z,19.40
2022-12-25T08:06:34.616Z,18.70
2022-12-25T08:09:12.990Z,21.30
2022-12-25T08:11:44.379Z,26.98
2022-12-25T08:14:11.512Z,19.63
2022-12-25T08:16:41.777Z,21.90
2022-12-25T08:19:09.617Z,19.92
2022-12-25T08:21:36.890Z,22.00
2022-12-25T08:24:04.265Z,22.73
2022-12-25T08:26:31.337Z,21.70
2022-12-25T08:28:58.977Z,19.00
2022-12-25T08:31:29.642Z,20.58
2022-12-25T08:33:58.383Z,22.05
2022-12-25T08:36:25.781Z,22.52
2022-12-25T08:39:00.374Z,21.90
2022-12-25T08:41:29.962Z,22.92
2022-12-25T08:43:57.000Z,20.83
2022-12-25T08:46:24.373Z,26.05
2022-12-25T08:48:51.652Z,21.85
2022-12-25T08:51:21.965Z,22.52
2022-12-25T08:53:51.211Z,24.60
2022-12-25T08:56:19.404Z,22.48
2022-12-25T08:58:47.303Z,24.50
2022-12-25T09:01:14.871Z,24.05
2022-12-25T09:03:43.089Z,24.42
2022-12-25T09:06:13.015Z,23.73
2022-12-25T09:08:46.192Z,23.67
2022-12-25T09:11:16.386Z,23.67
2022-12-25T09:13:43.479Z,24.35
2022-12-25T09:16:17.486Z,23.88
2022-12-25T09:18:45.019Z,27.90
2022-12-25T09:21:14.199Z,27.90
2022-12-25T09:23:41.756Z,28.65
2022-12-25T09:26:12.400Z,28.45
2022-12-25T09:28:40.837Z,26.60
2022-12-25T09:31:11.008Z,25.92
2022-12-25T09:33:38.129Z,31.15
2022-12-25T09:36:07.631Z,31.20
2022-12-25T09:38:35.286Z,30.23
2022-12-25T09:41:13.162Z,27.50
2022-12-25T09:43:46.765Z,30.40
2022-12-25T09:46:19.700Z,27.58
2022-12-25T09:49:12.127Z,28.67
2022-12-25T09:51:40.671Z,27.80
2022-12-25T09:54:18.376Z,26.45
2022-12-25T09:56:45.482Z,29.70
2022-12-25T09:59:26.428Z,29.10
2022-12-25T10:02:19.017Z,25.02
2022-12-25T10:05:25.957Z,27.10
2022-12-25T10:08:23.234Z,26.25
2022-12-25T10:11:01.463Z,28.58
2022-12-25T10:14:08.363Z,30.48
2022-12-25T10:17:13.078Z,29.48
2022-12-25T10:20:08.270Z,28.08
2022-12-25T10:22:40.891Z,25.48
2022-12-25T10:25:17.284Z,28.40
2022-12-25T10:27:45.279Z,28.42
2022-12-25T10:30:24.735Z,27.05
2022-12-25T10:32:52.977Z,28.33
2022-12-25T10:35:22.463Z,24.77
2022-12-25T10:37:58.986Z,27.23
2022-12-25T10:40:59.653Z,27.02
2022-12-25T10:43:50.101Z,26.60
2022-12-25T10:48:50.294Z,28.20
2022-12-25T10:51:31.497Z,22.70
2022-12-25T10:53:58.838Z,25.10
2022-12-25T10:56:26.033Z,27.65
2022-12-25T10:59:07.933Z,22.50
2022-12-25T11:01:35.129Z,23.98
2022-12-25T11:04:02.620Z,22.40
2022-12-25T11:06:32.354Z,26.55
2022-12-25T11:09:01.603Z,24.65
2022-12-25T11:11:30.223Z,25.50
2022-12-25T11:14:02.632Z,22.75
2022-12-25T11:16:38.460Z,23.35
2022-12-25T11:19:30.665Z,20.75
2022-12-25T11:22:00.480Z,22.92
2022-12-25T11:24:33.039Z,23.20
2022-12-25T11:27:04.836Z,23.58
2022-12-25T11:29:49.079Z,21.05
2022-12-25T11:32:22.759Z,23.80
2022-12-25T11:34:51.139Z,19.95
2022-12-25T11:37:27.320Z,21.10
2022-12-25T11:39:54.571Z,19.95
2022-12-25T11:42:28.440Z,22.13
2022-12-25T11:45:19.148Z,20.73
2022-12-25T11:47:58.931Z,20.63
2022-12-25T11:50:36.620Z,22.92
2022-12-25T11:53:22.219Z,20.73
2022-12-25T11:55:55.043Z,19.95
2022-12-25T11:58:45.084Z,19.33
2022-12-25T12:01:52.004Z,23.15
2022-12-25T12:04:42.651Z,23.48
2022-12-25T12:07:30.634Z,17.60
2022-12-25T12:10:19.299Z,18.92
2022-12-25T12:13:02.377Z,21.60
2022-12-25T12:15:39.719Z,20.70
2022-12-25T12:18:32.119Z,18.95
2022-12-25T12:21:23.974Z,16.98
2022-12-25T12:24:12.440Z,17.35
2022-12-25T12:26:42.676Z,17.42
2022-12-25T12:29:26.038Z,17.70
2022-12-25T12:31:54.118Z,18.13
2022-12-25T12:34:42.508Z,17.55
2022-12-25T12:37:31.870Z,16.77
2022-12-25T12:39:59.802Z,18.38
2022-12-25T12:42:31.403Z,16.33
2022-12-25T12:45:15.706Z,15.23
2022-12-25T12:47:46.833Z,15.80
2022-12-25T12:50:32.073Z,13.88
2022-12-25T12:53:00.277Z,13.65
2022-12-25T12:55:32.389Z,12.80
2022-12-25T12:58:01.928Z,13.25
2022-12-25T13:01:03.487Z,10.85
2022-12-25T13:04:00.704Z,12.50
2022-12-25T13:06:49.415Z,15.27
2022-12-25T13:09:56.229Z,12.27
2022-12-25T13:12:23.733Z,11.93
2022-12-25T13:14:51.153Z,13.40
2022-12-25T13:17:22.041Z,11.70
2022-12-25T13:19:59.508Z,11.25
2022-12-25T13:22:33.212Z,12.52
2022-12-25T13:25:05.156Z,9.98
2022-12-25T13:27:33.671Z,11.75
2022-12-25T13:30:11.468Z,10.90
2022-12-25T13:32:38.596Z,11.00
2022-12-25T13:35:11.907Z,9.98
2022-12-25T13:37:39.318Z,12.52
2022-12-25T13:40:08.734Z,9.93
2022-12-25T13:42:39.949Z,10.70
2022-12-25T13:45:24.219Z,9.52
2022-12-25T13:47:55.455Z,11.73
2022-12-25T13:50:32.643Z,9.25
2022-12-25T13:53:12.725Z,8.73
2022-12-25T13:55:40.780Z,10.25
2022-12-25T13:58:17.422Z,9.07
2022-12-25T14:00:50.371Z,9.27
2022-12-25T14:03:33.633Z,8.48
2022-12-25T14:06:06.934Z,8.48
2022-12-25T14:08:36.002Z,9.85
2022-12-25T14:11:06.174Z,6.90
2022-12-25T14:13:38.034Z,7.30
2022-12-25T14:16:06.066Z,7.57
2022-12-25T14:18:33.562Z,7.03
2022-12-25T14:21:05.476Z,9.27
2022-12-25T14:23:45.238Z,7.70
2022-12-25T14:26:21.818Z,9.50
2022-12-25T14:28:53.723Z,9.75
2022-12-25T14:31:21.677Z,8.32
2022-12-25T14:33:50.738Z,9.02
2022-12-25T14:36:18.207Z,9.05
2022-12-25T14:38:55.258Z,8.55
2022-12-25T14:41:34.628Z,8.48
2022-12-25T14:44:04.289Z,7.95
2022-12-25T14:46:33.416Z,9.27
2022-12-25T14:49:07.273Z,10.85
2022-12-25T14:51:38.346Z,7.85
2022-12-25T14:54:14.427Z,8.98
2022-12-25T14:56:47.361Z,9.43
2022-12-25T14:59:18.887Z,8.45
2022-12-25T15:01:52.460Z,8.05
2022-12-25T15:04:22.416Z,9.23
2022-12-25T15:07:00.409Z,7.15
2022-12-25T15:09:30.093Z,7.05
2022-12-25T15:11:57.461Z,8.50
2022-12-25T15:14:26.020Z,7.22
2022-12-25T15:16:56.411Z,8.57
2022-12-25T15:21:59.853Z,8.27
2022-12-25T15:24:26.935Z,7.30
2022-12-25T15:26:55.530Z,7.90
2022-12-25T15:29:44.596Z,8.15
2022-12-25T15:32:19.308Z,7.88
2022-12-25T15:34:47.358Z,11.40
2022-12-25T15:37:14.887Z,7.43
2022-12-25T15:39:42.066Z,9.50
2022-12-25T15:42:17.670Z,6.88
2022-12-25T15:44:45.576Z,7.32
2022-12-25T15:47:14.234Z,6.40
2022-12-25T15:49:41.645Z,8.57
2022-12-25T15:52:12.925Z,7.63
2022-12-25T15:54:40.030Z,7.53
2022-12-25T15:57:14.542Z,6.50
2022-12-25T15:59:41.607Z,7.45
2022-12-25T16:02:18.005Z,5.97
2022-12-25T16:04:45.892Z,5.90
2022-12-25T16:07:19.331Z,8.88
2022-12-25T16:09:46.538Z,6.93
2022-12-25T16:12:13.723Z,8.48
2022-12-25T16:14:41.060Z,6.18
2022-12-25T16:17:11.451Z,8.68
2022-12-25T16:22:13.675Z,7.78
2022-12-25T16:24:40.885Z,7.00
2022-12-25T16:27:07.989Z,5.47
2022-12-25T16:29:35.109Z,7.97
2022-12-25T16:32:02.306Z,6.63
2022-12-25T16:34:29.408Z,5.97
2022-12-25T16:36:56.708Z,7.10
2022-12-25T16:39:23.888Z,6.53
2022-12-25T16:41:50.960Z,7.95
2022-12-25T16:44:18.108Z,6.10
2022-12-25T16:46:45.301Z,7.18
2022-12-25T16:49:12.452Z,8.30
2022-12-25T16:51:39.603Z,7.75
2022-12-25T16:54:07.049Z,6.82
2022-12-25T16:56:36.775Z,5.90
2022-12-25T16:59:04.088Z,7.00
2022-12-25T17:01:31.357Z,6.40
2022-12-25T17:04:01.738Z,7.65
2022-12-25T17:08:58.965Z,6.05
2022-12-25T17:11:29.941Z,6.13
2022-12-25T17:13:59.900Z,4.55
2022-12-25T17:16:29.861Z,6.43
2022-12-25T17:19:01.517Z,5.38
2022-12-25T17:21:29.527Z,6.15
2022-12-25T17:24:02.262Z,6.88
2022-12-25T17:26:31.977Z,7.30
2022-12-25T17:28:59.385Z,5.90
2022-12-25T17:31:26.859Z,7.78
2022-12-25T17:33:54.580Z,5.03
2022-12-25T17:36:22.641Z,5.75
2022-12-25T17:38:49.927Z,6.70
2022-12-25T17:41:18.028Z,6.50
2022-12-25T17:43:46.027Z,6.53
2022-12-25T17:46:25.001Z,5.68
2022-12-25T17:48:54.447Z,5.22
2022-12-25T17:51:23.555Z,5.85
2022-12-25T17:53:56.430Z,7.65
2022-12-25T17:56:24.529Z,5.40
2022-12-25T17:58:54.464Z,6.75
2022-12-25T18:01:22.678Z,5.63
2022-12-25T18:03:51.197Z,4.88
2022-12-25T18:06:21.107Z,6.07
2022-12-25T18:08:49.162Z,5.40
2022-12-25T18:11:19.307Z,4.95
2022-12-25T18:13:50.068Z,5.93
2022-12-25T18:16:18.781Z,6.47
2022-12-25T18:18:51.776Z,5.85
2022-12-25T18:21:20.758Z,5.25
2022-12-25T18:23:47.954Z,5.40
2022-12-25T18:26:15.068Z,6.30
2022-12-25T18:28:44.090Z,4.75
2022-12-25T18:31:15.298Z,4.93
2022-12-25T18:33:43.501Z,5.80
2022-12-25T18:36:13.816Z,5.82
2022-12-25T18:38:41.650Z,5.72
2022-12-25T18:41:10.076Z,5.78
2022-12-25T18:43:53.254Z,5.72
2022-12-25T18:46:24.703Z,4.30
2022-12-25T18:48:54.701Z,4.93
2022-12-25T18:51:21.895Z,4.35
2022-12-25T18:53:49.012Z,5.97
2022-12-25T18:56:18.063Z,5.07
2022-12-25T18:58:46.775Z,4.43
2022-12-25T19:01:20.439Z,5.28
2022-12-25T19:03:49.352Z,5.25
2022-12-25T19:06:18.926Z,5.85
2022-12-25T19:08:46.665Z,4.45
2022-12-25T19:11:13.707Z,5.85
2022-12-25T19:13:40.837Z,4.40
2022-12-25T19:16:08.388Z,6.15
2022-12-25T19:18:35.499Z,4.40
2022-12-25T19:21:07.765Z,4.47
2022-12-25T19:23:35.725Z,6.50
2022-12-25T19:26:05.776Z,5.57
2022-12-25T19:28:32.965Z,4.28
2022-12-25T19:31:01.022Z,4.70
2022-12-25T19:33:30.841Z,4.60
2022-12-25T19:36:03.515Z,4.43
2022-12-25T19:38:30.605Z,3.83
2022-12-25T19:41:01.198Z,4.05
2022-12-25T19:43:30.616Z,5.00
2022-12-25T19:45:57.907Z,4.60
2022-12-25T19:48:25.177Z,3.45
2022-12-25T19:50:52.943Z,3.95
2022-12-25T19:53:23.320Z,5.65
2022-12-25T19:55:52.775Z,3.83
2022-12-25T19:58:20.998Z,4.32
2022-12-25T20:01:02.938Z,3.50
2022-12-25T20:03:30.241Z,5.30
2022-12-25T20:05:57.797Z,4.43
2022-12-25T20:08:25.300Z,3.67
2022-12-25T20:10:52.864Z,3.85
2022-12-25T20:13:20.378Z,4.80
2022-12-25T20:15:48.260Z,3.75
2022-12-25T20:18:16.884Z,4.28
2022-12-25T20:20:45.258Z,4.32
2022-12-25T20:23:12.414Z,3.58
2022-12-25T20:25:41.241Z,4.80
2022-12-25T20:28:08.964Z,4.25
2022-12-25T20:30:39.796Z,4.10
2022-12-25T20:33:07.056Z,4.13
2022-12-25T20:35:34.721Z,3.88
2022-12-25T20:38:01.916Z,3.28
2022-12-25T20:40:29.227Z,4.72
2022-12-25T20:42:56.300Z,5.45
2022-12-25T20:45:23.385Z,3.53
2022-12-25T20:47:50.473Z,4.30
2022-12-25T20:50:17.611Z,4.68
2022-12-25T20:52:44.657Z,4.00
2022-12-25T20:55:11.776Z,3.28
2022-12-25T20:57:38.838Z,4.50
2022-12-25T21:00:06.529Z,3.92
2022-12-25T21:02:36.717Z,4.25
2022-12-25T21:05:06.554Z,3.50
2022-12-25T21:07:34.107Z,3.40
2022-12-25T21:10:01.177Z,3.30
2022-12-25T21:12:28.220Z,4.60
2022-12-25T21:14:55.326Z,4.30
2022-12-25T21:17:22.472Z,3.67
2022-12-25T21:19:49.569Z,3.45
2022-12-25T21:22:16.697Z,3.47
2022-12-25T21:24:43.729Z,5.03
2022-12-25T21:27:10.792Z,4.18
2022-12-25T21:29:38.044Z,3.50
2022-12-25T21:32:25.225Z,4.93
2022-12-25T21:34:52.293Z,3.63
2022-12-25T21:37:19.396Z,4.78
2022-12-25T21:39:50.222Z,5.28
2022-12-25T21:42:17.506Z,3.50
2022-12-25T21:44:44.553Z,4.55
2022-12-25T21:47:11.605Z,3.85
2022-12-25T21:50:00.906Z,2.67
2022-12-25T21:52:27.993Z,4.13
2022-12-25T21:54:55.004Z,4.57
2022-12-25T21:57:22.030Z,3.80
2022-12-25T21:59:49.260Z,3.72
2022-12-25T22:02:16.440Z,4.03
2022-12-25T22:04:43.704Z,3.47
2022-12-25T22:07:20.473Z,3.42
2022-12-25T22:09:49.857Z,3.35
2022-12-25T22:12:39.065Z,3.83
2022-12-25T22:15:09.629Z,4.13
2022-12-25T22:18:02.214Z,5.10
2022-12-25T22:20:34.908Z,4.05
2022-12-25T22:23:02.891Z,4.50
2022-12-25T22:25:30.035Z,4.43
2022-12-25T22:27:57.585Z,3.60
2022-12-25T22:30:27.616Z,3.83
2022-12-25T22:32:55.212Z,3.13
2022-12-25T22:35:22.624Z,4.63
2022-12-25T22:37:50.063Z,4.97
2022-12-25T22:40:19.146Z,4.72
2022-12-25T22:42:46.314Z,3.05
2022-12-25T22:45:13.759Z,3.45
2022-12-25T22:47:41.168Z,4.47
2022-12-25T22:50:09.209Z,3.90
2022-12-25T22:52:37.137Z,4.18
2022-12-25T22:55:05.718Z,4.32
2022-12-25T22:57:34.541Z,3.97
2022-12-25T23:00:01.896Z,5.03
2022-12-25T23:02:29.321Z,3.60
2022-12-25T23:04:56.553Z,4.43
2022-12-25T23:07:23.577Z,4.43
2022-12-25T23:09:50.640Z,5.87
2022-12-25T23:12:37.599Z,4.80
2022-12-25T23:15:05.141Z,4.63
2022-12-25T23:17:52.062Z,3.85
2022-12-25T23:20:39.174Z,3.13
2022-12-25T23:23:26.115Z,4.85
2022-12-25T23:26:09.090Z,3.92
2022-12-25T23:29:01.273Z,3.83
2022-12-25T23:31:36.714Z,5.20
2022-12-25T23:34:05.363Z,3.80
2022-12-25T23:36:32.693Z,4.38
2022-12-25T23:39:06.679Z,4.85
2022-12-25T23:41:36.422Z,4.50
2022-12-25T23:44:03.539Z,4.97
2022-12-25T23:46:31.723Z,4.47
2022-12-25T23:48:58.864Z,3.35
2022-12-25T23:51:25.986Z,5.30
2022-12-25T23:53:53.122Z,4.63
2022-12-25T23:56:20.168Z,4.32
2022-12-25T23:58:51.940Z,4.60
